sensor_id;sensor_type;location;lat;lon;timestamp;temperature;humidity
16515;DHT22;8370;52.556;7.970;2023-06-14T00:01:32;17.30;99.90
16515;DHT22;8370;52.556;7.970;2023-06-14T00:04:00;17.30;99.90
16515;DHT22;8370;52.556;7.970;2023-06-14T00:06:26;17.20;99.90
16515;DHT22;8370;52.556;7.970;2023-06-14T00:08:52;17.20;99.90
16515;DHT22;8370;52.556;7.970;2023-06-14T00:11:19;17.10;99.90
16515;DHT22;8370;52.556;7.970;2023-06-14T00:13:45;17.10;99.90
16515;DHT22;8370;52.556;7.970;2023-06-14T00:16:10;17.00;99.90
16515;DHT22;8370;52.556;7.970;2023-06-14T00:18:36;17.00;99.90
16515;DHT22;8370;52.556;7.970;2023-06-14T00:21:02;16.90;99.90
16515;DHT22;8370;52.556;7.970;2023-06-14T00:23:29;16.90;99.90
16515;DHT22;8370;52.556;7.970;2023-06-14T00:25:54;16.80;99.90
16515;DHT22;8370;52.556;7.970;2023-06-14T00:28:20;16.70;99.90
16515;DHT22;8370;52.556;7.970;2023-06-14T00:30:45;16.70;99.90
16515;DHT22;8370;52.556;7.970;2023-06-14T00:33:12;16.60;99.90
16515;DHT22;8370;52.556;7.970;2023-06-14T00:35:37;16.60;99.90
16515;DHT22;8370;52.556;7.970;2023-06-14T00:38:03;16.60;99.90
16515;DHT22;8370;52.556;7.970;2023-06-14T00:40:28;16.60;99.90
16515;DHT22;8370;52.556;7.970;2023-06-14T00:42:54;16.60;99.90
16515;DHT22;8370;52.556;7.970;2023-06-14T00:45:19;16.50;99.90
16515;DHT22;8370;52.556;7.970;2023-06-14T00:47:45;16.50;99.90
16515;DHT22;8370;52.556;7.970;2023-06-14T00:50:11;16.50;99.90
16515;DHT22;8370;52.556;7.970;2023-06-14T00:52:36;16.50;99.90
16515;DHT22;8370;52.556;7.970;2023-06-14T00:55:02;16.40;99.90
16515;DHT22;8370;52.556;7.970;2023-06-14T00:57:28;16.40;99.90
16515;DHT22;8370;52.556;7.970;2023-06-14T00:59:54;16.40;99.90
16515;DHT22;8370;52.556;7.970;2023-06-14T01:02:20;16.30;99.90
16515;DHT22;8370;52.556;7.970;2023-06-14T01:04:46;16.30;99.90
16515;DHT22;8370;52.556;7.970;2023-06-14T01:07:18;16.30;99.90
16515;DHT22;8370;52.556;7.970;2023-06-14T01:12:31;16.10;99.90
16515;DHT22;8370;52.556;7.970;2023-06-14T01:15:00;16.10;99.90
16515;DHT22;8370;52.556;7.970;2023-06-14T01:17:26;16.10;99.90
16515;DHT22;8370;52.556;7.970;2023-06-14T01:19:52;16.00;99.90
16515;DHT22;8370;52.556;7.970;2023-06-14T01:22:24;16.00;99.90
16515;DHT22;8370;52.556;7.970;2023-06-14T01:24:51;15.90;99.90
16515;DHT22;8370;52.556;7.970;2023-06-14T01:27:23;15.90;99.90
16515;DHT22;8370;52.556;7.970;2023-06-14T01:29:50;15.80;99.90
16515;DHT22;8370;52.556;7.970;2023-06-14T01:32:16;15.80;99.90
16515;DHT22;8370;52.556;7.970;2023-06-14T01:34:43;15.70;99.90
16515;DHT22;8370;52.556;7.970;2023-06-14T01:37:08;15.70;99.90
16515;DHT22;8370;52.556;7.970;2023-06-14T01:39:34;15.70;99.90
16515;DHT22;8370;52.556;7.970;2023-06-14T01:42:00;15.60;99.90
16515;DHT22;8370;52.556;7.970;2023-06-14T01:44:25;15.60;99.90
16515;DHT22;8370;52.556;7.970;2023-06-14T01:46:52;15.50;99.90
16515;DHT22;8370;52.556;7.970;2023-06-14T01:49:17;15.50;99.90
16515;DHT22;8370;52.556;7.970;2023-06-14T01:51:43;15.40;99.90
16515;DHT22;8370;52.556;7.970;2023-06-14T01:54:08;15.40;99.90
16515;DHT22;8370;52.556;7.970;2023-06-14T01:56:34;15.30;99.90
16515;DHT22;8370;52.556;7.970;2023-06-14T01:58:59;15.30;99.90
16515;DHT22;8370;52.556;7.970;2023-06-14T02:01:25;15.20;99.90
16515;DHT22;8370;52.556;7.970;2023-06-14T02:03:52;15.20;99.90
16515;DHT22;8370;52.556;7.970;2023-06-14T02:06:18;15.20;99.90
16515;DHT22;8370;52.556;7.970;2023-06-14T02:08:44;15.10;99.90
16515;DHT22;8370;52.556;7.970;2023-06-14T02:11:10;15.10;99.90
16515;DHT22;8370;52.556;7.970;2023-06-14T02:13:35;15.10;99.90
16515;DHT22;8370;52.556;7.970;2023-06-14T02:16:01;15.10;99.90
16515;DHT22;8370;52.556;7.970;2023-06-14T02:18:26;15.10;99.90
16515;DHT22;8370;52.556;7.970;2023-06-14T02:20:52;15.10;99.90
16515;DHT22;8370;52.556;7.970;2023-06-14T02:23:17;15.00;99.90
16515;DHT22;8370;52.556;7.970;2023-06-14T02:25:43;15.00;99.90
16515;DHT22;8370;52.556;7.970;2023-06-14T02:28:10;15.00;99.90
16515;DHT22;8370;52.556;7.970;2023-06-14T02:30:35;15.00;99.90
16515;DHT22;8370;52.556;7.970;2023-06-14T02:33:01;15.00;99.90
16515;DHT22;8370;52.556;7.970;2023-06-14T02:35:26;15.00;99.90
16515;DHT22;8370;52.556;7.970;2023-06-14T02:37:52;15.00;99.90
16515;DHT22;8370;52.556;7.970;2023-06-14T02:40:18;15.00;99.90
16515;DHT22;8370;52.556;7.970;2023-06-14T02:42:44;15.00;99.90
16515;DHT22;8370;52.556;7.970;2023-06-14T02:45:09;15.00;99.90
16515;DHT22;8370;52.556;7.970;2023-06-14T02:47:35;15.00;99.90
16515;DHT22;8370;52.556;7.970;2023-06-14T02:50:00;15.00;99.90
16515;DHT22;8370;52.556;7.970;2023-06-14T02:52:26;15.00;99.90
16515;DHT22;8370;52.556;7.970;2023-06-14T02:54:51;15.00;99.90
16515;DHT22;8370;52.556;7.970;2023-06-14T02:57:17;14.90;99.90
16515;DHT22;8370;52.556;7.970;2023-06-14T02:59:42;14.90;99.90
16515;DHT22;8370;52.556;7.970;2023-06-14T03:02:08;14.90;99.90
16515;DHT22;8370;52.556;7.970;2023-06-14T03:04:33;15.00;99.90
16515;DHT22;8370;52.556;7.970;2023-06-14T03:07:02;14.90;99.90
16515;DHT22;8370;52.556;7.970;2023-06-14T03:09:34;14.90;99.90
16515;DHT22;8370;52.556;7.970;2023-06-14T03:12:00;14.80;99.90
16515;DHT22;8370;52.556;7.970;2023-06-14T03:14:25;14.80;99.90
16515;DHT22;8370;52.556;7.970;2023-06-14T03:16:51;14.80;99.90
16515;DHT22;8370;52.556;7.970;2023-06-14T03:19:24;14.80;99.90
16515;DHT22;8370;52.556;7.970;2023-06-14T03:21:51;14.70;99.90
16515;DHT22;8370;52.556;7.970;2023-06-14T03:24:17;14.70;99.90
16515;DHT22;8370;52.556;7.970;2023-06-14T03:26:42;14.70;99.90
16515;DHT22;8370;52.556;7.970;2023-06-14T03:29:08;14.70;99.90
16515;DHT22;8370;52.556;7.970;2023-06-14T03:31:34;14.70;99.90
16515;DHT22;8370;52.556;7.970;2023-06-14T03:34:00;14.80;99.90
16515;DHT22;8370;52.556;7.970;2023-06-14T03:36:25;14.70;99.90
16515;DHT22;8370;52.556;7.970;2023-06-14T03:38:51;14.70;99.90
16515;DHT22;8370;52.556;7.970;2023-06-14T03:41:16;14.70;99.90
16515;DHT22;8370;52.556;7.970;2023-06-14T03:43:42;14.70;99.90
16515;DHT22;8370;52.556;7.970;2023-06-14T03:46:07;14.80;99.90
16515;DHT22;8370;52.556;7.970;2023-06-14T03:48:33;14.70;99.90
16515;DHT22;8370;52.556;7.970;2023-06-14T03:50:58;14.70;99.90
16515;DHT22;8370;52.556;7.970;2023-06-14T03:53:23;14.70;99.90
16515;DHT22;8370;52.556;7.970;2023-06-14T03:55:49;14.70;99.90
16515;DHT22;8370;52.556;7.970;2023-06-14T03:58:15;14.70;99.90
16515;DHT22;8370;52.556;7.970;2023-06-14T04:00:41;14.70;99.90
16515;DHT22;8370;52.556;7.970;2023-06-14T04:03:06;14.70;99.90
16515;DHT22;8370;52.556;7.970;2023-06-14T04:05:32;14.70;99.90
16515;DHT22;8370;52.556;7.970;2023-06-14T04:07:57;14.70;99.90
16515;DHT22;8370;52.556;7.970;2023-06-14T04:10:25;14.70;99.90
16515;DHT22;8370;52.556;7.970;2023-06-14T04:12:50;14.80;99.90
16515;DHT22;8370;52.556;7.970;2023-06-14T04:15:17;14.70;99.90
16515;DHT22;8370;52.556;7.970;2023-06-14T04:17:42;14.80;99.90
16515;DHT22;8370;52.556;7.970;2023-06-14T04:20:07;14.80;99.90
16515;DHT22;8370;52.556;7.970;2023-06-14T04:22:34;14.80;99.90
16515;DHT22;8370;52.556;7.970;2023-06-14T04:25:01;14.80;99.90
16515;DHT22;8370;52.556;7.970;2023-06-14T04:27:27;14.90;99.90
16515;DHT22;8370;52.556;7.970;2023-06-14T04:29:54;14.90;99.90
16515;DHT22;8370;52.556;7.970;2023-06-14T04:32:25;14.90;99.90
16515;DHT22;8370;52.556;7.970;2023-06-14T04:34:54;15.00;99.90
16515;DHT22;8370;52.556;7.970;2023-06-14T04:37:20;15.00;99.90
16515;DHT22;8370;52.556;7.970;2023-06-14T04:39:46;15.10;99.90
16515;DHT22;8370;52.556;7.970;2023-06-14T04:42:12;15.10;99.90
16515;DHT22;8370;52.556;7.970;2023-06-14T04:44:42;15.10;99.90
16515;DHT22;8370;52.556;7.970;2023-06-14T04:47:09;15.20;99.90
16515;DHT22;8370;52.556;7.970;2023-06-14T04:49:34;15.20;99.90
16515;DHT22;8370;52.556;7.970;2023-06-14T04:52:00;15.30;99.90
16515;DHT22;8370;52.556;7.970;2023-06-14T04:54:26;15.30;99.90
16515;DHT22;8370;52.556;7.970;2023-06-14T04:56:52;15.30;99.90
16515;DHT22;8370;52.556;7.970;2023-06-14T04:59:20;15.40;99.90
16515;DHT22;8370;52.556;7.970;2023-06-14T05:01:48;15.40;99.90
16515;DHT22;8370;52.556;7.970;2023-06-14T05:04:14;15.50;99.90
16515;DHT22;8370;52.556;7.970;2023-06-14T05:06:41;15.50;99.90
16515;DHT22;8370;52.556;7.970;2023-06-14T05:09:07;15.60;99.90
16515;DHT22;8370;52.556;7.970;2023-06-14T05:11:32;15.60;99.90
16515;DHT22;8370;52.556;7.970;2023-06-14T05:13:57;15.60;99.90
16515;DHT22;8370;52.556;7.970;2023-06-14T05:16:23;15.70;99.90
16515;DHT22;8370;52.556;7.970;2023-06-14T05:18:50;15.80;99.90
16515;DHT22;8370;52.556;7.970;2023-06-14T05:21:17;15.80;99.90
16515;DHT22;8370;52.556;7.970;2023-06-14T05:23:46;15.90;99.90
16515;DHT22;8370;52.556;7.970;2023-06-14T05:26:12;15.90;99.90
16515;DHT22;8370;52.556;7.970;2023-06-14T05:28:37;15.90;99.90
16515;DHT22;8370;52.556;7.970;2023-06-14T05:31:03;16.00;99.90
16515;DHT22;8370;52.556;7.970;2023-06-14T05:33:28;16.10;99.90
16515;DHT22;8370;52.556;7.970;2023-06-14T05:35:54;16.10;99.90
16515;DHT22;8370;52.556;7.970;2023-06-14T05:38:19;16.20;99.90
16515;DHT22;8370;52.556;7.970;2023-06-14T05:40:45;16.30;99.90
16515;DHT22;8370;52.556;7.970;2023-06-14T05:43:10;16.40;99.90
16515;DHT22;8370;52.556;7.970;2023-06-14T05:45:35;16.40;99.90
16515;DHT22;8370;52.556;7.970;2023-06-14T05:48:01;16.50;99.90
16515;DHT22;8370;52.556;7.970;2023-06-14T05:50:26;16.60;99.90
16515;DHT22;8370;52.556;7.970;2023-06-14T05:52:53;16.70;99.90
16515;DHT22;8370;52.556;7.970;2023-06-14T05:55:18;16.70;99.90
16515;DHT22;8370;52.556;7.970;2023-06-14T05:57:43;16.70;99.90
16515;DHT22;8370;52.556;7.970;2023-06-14T06:00:09;16.90;99.90
16515;DHT22;8370;52.556;7.970;2023-06-14T06:02:40;16.90;99.90
16515;DHT22;8370;52.556;7.970;2023-06-14T06:05:05;17.00;99.90
16515;DHT22;8370;52.556;7.970;2023-06-14T06:07:31;17.10;99.90
16515;DHT22;8370;52.556;7.970;2023-06-14T06:09:56;17.20;99.90
16515;DHT22;8370;52.556;7.970;2023-06-14T06:12:22;17.20;99.90
16515;DHT22;8370;52.556;7.970;2023-06-14T06:14:47;17.30;99.90
16515;DHT22;8370;52.556;7.970;2023-06-14T06:17:13;17.30;99.90
16515;DHT22;8370;52.556;7.970;2023-06-14T06:19:38;17.40;99.90
16515;DHT22;8370;52.556;7.970;2023-06-14T06:22:04;17.40;99.90
16515;DHT22;8370;52.556;7.970;2023-06-14T06:24:31;17.50;99.90
16515;DHT22;8370;52.556;7.970;2023-06-14T06:26:57;17.60;99.90
16515;DHT22;8370;52.556;7.970;2023-06-14T06:29:22;17.70;99.90
16515;DHT22;8370;52.556;7.970;2023-06-14T06:31:47;17.80;99.90
16515;DHT22;8370;52.556;7.970;2023-06-14T06:34:13;17.80;99.90
16515;DHT22;8370;52.556;7.970;2023-06-14T06:36:38;17.90;99.90
16515;DHT22;8370;52.556;7.970;2023-06-14T06:39:04;18.00;99.90
16515;DHT22;8370;52.556;7.970;2023-06-14T06:41:38;18.00;99.90
16515;DHT22;8370;52.556;7.970;2023-06-14T06:44:05;18.00;99.90
16515;DHT22;8370;52.556;7.970;2023-06-14T06:46:31;18.10;99.90
16515;DHT22;8370;52.556;7.970;2023-06-14T06:48:57;18.10;99.90
16515;DHT22;8370;52.556;7.970;2023-06-14T06:51:22;18.30;99.90
16515;DHT22;8370;52.556;7.970;2023-06-14T06:53:52;18.40;99.90
16515;DHT22;8370;52.556;7.970;2023-06-14T06:56:17;18.40;99.90
16515;DHT22;8370;52.556;7.970;2023-06-14T06:58:43;18.50;99.90
16515;DHT22;8370;52.556;7.970;2023-06-14T07:01:08;18.60;99.90
16515;DHT22;8370;52.556;7.970;2023-06-14T07:03:34;18.70;99.90
16515;DHT22;8370;52.556;7.970;2023-06-14T07:06:00;18.90;99.90
16515;DHT22;8370;52.556;7.970;2023-06-14T07:08:26;18.90;99.90
16515;DHT22;8370;52.556;7.970;2023-06-14T07:10:52;19.00;99.90
16515;DHT22;8370;52.556;7.970;2023-06-14T07:13:17;19.10;99.90
16515;DHT22;8370;52.556;7.970;2023-06-14T07:15:43;19.10;99.90
16515;DHT22;8370;52.556;7.970;2023-06-14T07:18:08;19.20;99.90
16515;DHT22;8370;52.556;7.970;2023-06-14T07:20:34;19.30;99.90
16515;DHT22;8370;52.556;7.970;2023-06-14T07:22:59;19.30;99.90
16515;DHT22;8370;52.556;7.970;2023-06-14T07:25:25;19.30;99.90
16515;DHT22;8370;52.556;7.970;2023-06-14T07:27:51;19.30;99.90
16515;DHT22;8370;52.556;7.970;2023-06-14T07:30:16;19.30;99.90
16515;DHT22;8370;52.556;7.970;2023-06-14T07:32:42;19.40;99.90
16515;DHT22;8370;52.556;7.970;2023-06-14T07:35:07;19.50;99.90
16515;DHT22;8370;52.556;7.970;2023-06-14T07:37:33;19.60;99.90
16515;DHT22;8370;52.556;7.970;2023-06-14T07:39:58;19.70;99.90
16515;DHT22;8370;52.556;7.970;2023-06-14T07:42:24;19.80;99.90
16515;DHT22;8370;52.556;7.970;2023-06-14T07:44:49;20.00;99.90
16515;DHT22;8370;52.556;7.970;2023-06-14T07:47:17;20.10;99.90
16515;DHT22;8370;52.556;7.970;2023-06-14T07:49:42;20.30;99.90
16515;DHT22;8370;52.556;7.970;2023-06-14T07:52:08;20.30;99.90
16515;DHT22;8370;52.556;7.970;2023-06-14T07:54:33;20.40;99.90
16515;DHT22;8370;52.556;7.970;2023-06-14T07:56:59;20.50;99.90
16515;DHT22;8370;52.556;7.970;2023-06-14T07:59:25;20.70;99.90
16515;DHT22;8370;52.556;7.970;2023-06-14T08:01:51;20.80;99.90
16515;DHT22;8370;52.556;7.970;2023-06-14T08:04:17;20.90;99.90
16515;DHT22;8370;52.556;7.970;2023-06-14T08:06:42;20.90;99.90
16515;DHT22;8370;52.556;7.970;2023-06-14T08:09:11;21.00;99.90
16515;DHT22;8370;52.556;7.970;2023-06-14T08:11:37;21.00;99.90
16515;DHT22;8370;52.556;7.970;2023-06-14T08:14:03;21.00;99.90
16515;DHT22;8370;52.556;7.970;2023-06-14T08:16:28;21.10;99.90
16515;DHT22;8370;52.556;7.970;2023-06-14T08:18:54;21.20;99.90
16515;DHT22;8370;52.556;7.970;2023-06-14T08:21:20;21.30;99.90
16515;DHT22;8370;52.556;7.970;2023-06-14T08:23:45;21.40;99.90
16515;DHT22;8370;52.556;7.970;2023-06-14T08:26:10;21.50;99.90
16515;DHT22;8370;52.556;7.970;2023-06-14T08:28:36;21.50;99.90
16515;DHT22;8370;52.556;7.970;2023-06-14T08:31:01;21.60;99.90
16515;DHT22;8370;52.556;7.970;2023-06-14T08:33:27;21.70;99.90
16515;DHT22;8370;52.556;7.970;2023-06-14T08:35:52;21.70;99.90
16515;DHT22;8370;52.556;7.970;2023-06-14T08:38:18;21.70;99.90
16515;DHT22;8370;52.556;7.970;2023-06-14T08:40:43;21.90;99.90
16515;DHT22;8370;52.556;7.970;2023-06-14T08:43:10;21.80;99.90
16515;DHT22;8370;52.556;7.970;2023-06-14T08:45:35;21.90;99.90
16515;DHT22;8370;52.556;7.970;2023-06-14T08:48:01;21.90;99.90
16515;DHT22;8370;52.556;7.970;2023-06-14T08:50:27;21.90;99.90
16515;DHT22;8370;52.556;7.970;2023-06-14T08:52:56;21.90;99.90
16515;DHT22;8370;52.556;7.970;2023-06-14T08:55:23;22.00;99.90
16515;DHT22;8370;52.556;7.970;2023-06-14T08:57:51;22.00;99.90
16515;DHT22;8370;52.556;7.970;2023-06-14T09:00:19;22.10;99.90
16515;DHT22;8370;52.556;7.970;2023-06-14T09:02:46;22.10;99.90
16515;DHT22;8370;52.556;7.970;2023-06-14T09:05:11;22.30;99.90
16515;DHT22;8370;52.556;7.970;2023-06-14T09:07:41;22.30;99.90
16515;DHT22;8370;52.556;7.970;2023-06-14T09:10:07;22.40;99.90
16515;DHT22;8370;52.556;7.970;2023-06-14T09:12:33;22.50;99.90
16515;DHT22;8370;52.556;7.970;2023-06-14T09:14:59;22.50;99.90
16515;DHT22;8370;52.556;7.970;2023-06-14T09:17:25;22.60;99.90
16515;DHT22;8370;52.556;7.970;2023-06-14T09:19:50;22.50;99.90
16515;DHT22;8370;52.556;7.970;2023-06-14T09:22:16;22.50;99.90
16515;DHT22;8370;52.556;7.970;2023-06-14T09:24:41;22.40;99.90
16515;DHT22;8370;52.556;7.970;2023-06-14T09:27:07;22.50;99.90
16515;DHT22;8370;52.556;7.970;2023-06-14T09:29:33;22.70;99.90
16515;DHT22;8370;52.556;7.970;2023-06-14T09:31:58;22.70;99.90
16515;DHT22;8370;52.556;7.970;2023-06-14T09:34:24;22.70;99.90
16515;DHT22;8370;52.556;7.970;2023-06-14T09:36:49;22.70;99.90
16515;DHT22;8370;52.556;7.970;2023-06-14T09:39:16;22.70;99.90
16515;DHT22;8370;52.556;7.970;2023-06-14T09:41:42;22.80;99.90
16515;DHT22;8370;52.556;7.970;2023-06-14T09:44:09;22.70;99.90
16515;DHT22;8370;52.556;7.970;2023-06-14T09:46:35;22.70;99.90
16515;DHT22;8370;52.556;7.970;2023-06-14T09:49:01;22.80;99.90
16515;DHT22;8370;52.556;7.970;2023-06-14T09:51:27;22.80;99.90
16515;DHT22;8370;52.556;7.970;2023-06-14T09:53:53;23.00;99.90
16515;DHT22;8370;52.556;7.970;2023-06-14T09:56:22;23.10;99.90
16515;DHT22;8370;52.556;7.970;2023-06-14T09:58:49;23.00;99.90
16515;DHT22;8370;52.556;7.970;2023-06-14T10:01:15;23.10;99.90
16515;DHT22;8370;52.556;7.970;2023-06-14T10:03:42;23.20;99.90
16515;DHT22;8370;52.556;7.970;2023-06-14T10:06:10;23.30;99.90
16515;DHT22;8370;52.556;7.970;2023-06-14T10:08:35;23.30;99.90
16515;DHT22;8370;52.556;7.970;2023-06-14T10:11:02;23.30;99.90
16515;DHT22;8370;52.556;7.970;2023-06-14T10:13:28;23.30;99.90
16515;DHT22;8370;52.556;7.970;2023-06-14T10:16:02;23.20;99.90
16515;DHT22;8370;52.556;7.970;2023-06-14T10:18:48;23.30;99.90
16515;DHT22;8370;52.556;7.970;2023-06-14T10:21:21;23.40;99.90
16515;DHT22;8370;52.556;7.970;2023-06-14T10:23:48;23.40;99.90
16515;DHT22;8370;52.556;7.970;2023-06-14T10:26:21;23.40;99.90
16515;DHT22;8370;52.556;7.970;2023-06-14T10:29:00;23.50;99.90
16515;DHT22;8370;52.556;7.970;2023-06-14T10:34:28;23.70;99.90
16515;DHT22;8370;52.556;7.970;2023-06-14T10:37:00;23.60;99.90
16515;DHT22;8370;52.556;7.970;2023-06-14T10:39:27;23.70;99.90
16515;DHT22;8370;52.556;7.970;2023-06-14T10:41:53;23.80;99.90
16515;DHT22;8370;52.556;7.970;2023-06-14T10:46:53;24.00;99.90
16515;DHT22;8370;52.556;7.970;2023-06-14T10:49:19;24.10;99.90
16515;DHT22;8370;52.556;7.970;2023-06-14T10:51:51;24.20;99.90
16515;DHT22;8370;52.556;7.970;2023-06-14T10:54:17;24.10;99.90
16515;DHT22;8370;52.556;7.970;2023-06-14T10:56:52;24.20;99.70
16515;DHT22;8370;52.556;7.970;2023-06-14T10:59:18;24.20;99.60
16515;DHT22;8370;52.556;7.970;2023-06-14T11:04:49;24.40;99.90
16515;DHT22;8370;52.556;7.970;2023-06-14T11:07:30;24.50;99.90
16515;DHT22;8370;52.556;7.970;2023-06-14T11:10:09;24.60;99.90
16515;DHT22;8370;52.556;7.970;2023-06-14T11:12:35;24.80;99.90
16515;DHT22;8370;52.556;7.970;2023-06-14T11:15:02;24.90;99.90
16515;DHT22;8370;52.556;7.970;2023-06-14T11:17:28;25.10;99.90
16515;DHT22;8370;52.556;7.970;2023-06-14T11:20:11;25.30;99.90
16515;DHT22;8370;52.556;7.970;2023-06-14T11:22:44;25.30;99.00
16515;DHT22;8370;52.556;7.970;2023-06-14T11:25:09;25.40;98.90
16515;DHT22;8370;52.556;7.970;2023-06-14T11:27:35;25.40;98.50
16515;DHT22;8370;52.556;7.970;2023-06-14T11:30:01;25.40;98.30
16515;DHT22;8370;52.556;7.970;2023-06-14T11:32:26;25.40;98.30
16515;DHT22;8370;52.556;7.970;2023-06-14T11:34:51;25.40;97.20
16515;DHT22;8370;52.556;7.970;2023-06-14T11:37:17;25.40;98.10
16515;DHT22;8370;52.556;7.970;2023-06-14T11:39:43;25.40;97.80
16515;DHT22;8370;52.556;7.970;2023-06-14T11:42:13;25.50;97.60
16515;DHT22;8370;52.556;7.970;2023-06-14T11:44:38;25.50;98.90
16515;DHT22;8370;52.556;7.970;2023-06-14T11:47:04;25.60;97.60
16515;DHT22;8370;52.556;7.970;2023-06-14T11:49:31;25.70;97.90
16515;DHT22;8370;52.556;7.970;2023-06-14T11:51:59;25.80;98.20
16515;DHT22;8370;52.556;7.970;2023-06-14T11:54:25;26.00;98.30
16515;DHT22;8370;52.556;7.970;2023-06-14T11:56:51;26.30;97.10
16515;DHT22;8370;52.556;7.970;2023-06-14T11:59:16;26.40;96.90
16515;DHT22;8370;52.556;7.970;2023-06-14T12:01:42;26.50;96.80
16515;DHT22;8370;52.556;7.970;2023-06-14T12:04:08;26.50;96.30
16515;DHT22;8370;52.556;7.970;2023-06-14T12:06:34;26.40;95.90
16515;DHT22;8370;52.556;7.970;2023-06-14T12:09:04;26.50;95.20
16515;DHT22;8370;52.556;7.970;2023-06-14T12:11:34;26.60;95.10
16515;DHT22;8370;52.556;7.970;2023-06-14T12:14:00;27.30;95.20
16515;DHT22;8370;52.556;7.970;2023-06-14T12:16:30;28.40;94.00
16515;DHT22;8370;52.556;7.970;2023-06-14T12:18:56;30.20;93.00
16515;DHT22;8370;52.556;7.970;2023-06-14T12:21:25;32.30;90.60
16515;DHT22;8370;52.556;7.970;2023-06-14T12:23:53;33.20;86.80
16515;DHT22;8370;52.556;7.970;2023-06-14T12:26:19;33.60;85.10
16515;DHT22;8370;52.556;7.970;2023-06-14T12:28:45;34.20;80.10
16515;DHT22;8370;52.556;7.970;2023-06-14T12:31:11;35.20;77.60
16515;DHT22;8370;52.556;7.970;2023-06-14T12:33:38;35.50;77.20
16515;DHT22;8370;52.556;7.970;2023-06-14T12:36:04;36.10;72.30
16515;DHT22;8370;52.556;7.970;2023-06-14T12:38:30;36.80;70.50
16515;DHT22;8370;52.556;7.970;2023-06-14T12:40:56;36.90;67.70
16515;DHT22;8370;52.556;7.970;2023-06-14T12:43:22;37.00;68.10
16515;DHT22;8370;52.556;7.970;2023-06-14T12:45:48;37.20;66.80
16515;DHT22;8370;52.556;7.970;2023-06-14T12:48:13;37.80;65.50
16515;DHT22;8370;52.556;7.970;2023-06-14T12:50:39;38.30;64.20
16515;DHT22;8370;52.556;7.970;2023-06-14T12:53:04;37.90;64.70
16515;DHT22;8370;52.556;7.970;2023-06-14T12:55:30;37.70;64.00
16515;DHT22;8370;52.556;7.970;2023-06-14T12:57:55;37.20;62.90
16515;DHT22;8370;52.556;7.970;2023-06-14T13:00:21;37.30;63.30
16515;DHT22;8370;52.556;7.970;2023-06-14T13:02:47;37.60;63.40
16515;DHT22;8370;52.556;7.970;2023-06-14T13:05:12;37.50;63.20
16515;DHT22;8370;52.556;7.970;2023-06-14T13:07:38;37.60;63.00
16515;DHT22;8370;52.556;7.970;2023-06-14T13:10:03;36.30;62.30
16515;DHT22;8370;52.556;7.970;2023-06-14T13:12:29;34.50;62.60
16515;DHT22;8370;52.556;7.970;2023-06-14T13:14:54;32.80;65.80
16515;DHT22;8370;52.556;7.970;2023-06-14T13:17:20;32.30;67.50
16515;DHT22;8370;52.556;7.970;2023-06-14T13:19:45;32.00;68.00
16515;DHT22;8370;52.556;7.970;2023-06-14T13:22:10;31.40;70.20
16515;DHT22;8370;52.556;7.970;2023-06-14T13:24:36;31.00;70.10
16515;DHT22;8370;52.556;7.970;2023-06-14T13:27:01;31.00;71.20
16515;DHT22;8370;52.556;7.970;2023-06-14T13:29:27;30.90;70.20
16515;DHT22;8370;52.556;7.970;2023-06-14T13:31:53;30.50;72.30
16515;DHT22;8370;52.556;7.970;2023-06-14T13:34:18;30.30;71.90
16515;DHT22;8370;52.556;7.970;2023-06-14T13:36:44;30.20;72.90
16515;DHT22;8370;52.556;7.970;2023-06-14T13:39:09;29.90;73.60
16515;DHT22;8370;52.556;7.970;2023-06-14T13:41:36;29.90;71.80
16515;DHT22;8370;52.556;7.970;2023-06-14T13:44:01;29.40;71.80
16515;DHT22;8370;52.556;7.970;2023-06-14T13:46:29;28.80;72.90
16515;DHT22;8370;52.556;7.970;2023-06-14T13:48:54;28.10;74.50
16515;DHT22;8370;52.556;7.970;2023-06-14T13:51:20;27.80;77.10
16515;DHT22;8370;52.556;7.970;2023-06-14T13:53:46;27.40;76.30
16515;DHT22;8370;52.556;7.970;2023-06-14T13:56:12;27.00;76.60
16515;DHT22;8370;52.556;7.970;2023-06-14T13:58:38;26.70;77.80
16515;DHT22;8370;52.556;7.970;2023-06-14T14:01:03;26.60;77.50
16515;DHT22;8370;52.556;7.970;2023-06-14T14:03:28;26.70;79.00
16515;DHT22;8370;52.556;7.970;2023-06-14T14:05:54;26.90;80.50
16515;DHT22;8370;52.556;7.970;2023-06-14T14:08:19;27.10;79.50
16515;DHT22;8370;52.556;7.970;2023-06-14T14:10:45;27.30;76.90
16515;DHT22;8370;52.556;7.970;2023-06-14T14:13:11;27.60;78.10
16515;DHT22;8370;52.556;7.970;2023-06-14T14:15:37;27.80;77.90
16515;DHT22;8370;52.556;7.970;2023-06-14T14:18:03;28.00;77.30
16515;DHT22;8370;52.556;7.970;2023-06-14T14:20:29;27.90;75.80
16515;DHT22;8370;52.556;7.970;2023-06-14T14:22:55;27.60;74.70
16515;DHT22;8370;52.556;7.970;2023-06-14T14:25:21;27.50;76.90
16515;DHT22;8370;52.556;7.970;2023-06-14T14:27:47;27.50;76.00
16515;DHT22;8370;52.556;7.970;2023-06-14T14:30:12;27.60;76.90
16515;DHT22;8370;52.556;7.970;2023-06-14T14:32:39;27.70;76.50
16515;DHT22;8370;52.556;7.970;2023-06-14T14:35:05;27.80;75.80
16515;DHT22;8370;52.556;7.970;2023-06-14T14:37:31;27.80;76.60
16515;DHT22;8370;52.556;7.970;2023-06-14T14:39:56;27.90;75.80
16515;DHT22;8370;52.556;7.970;2023-06-14T14:42:22;27.90;76.60
16515;DHT22;8370;52.556;7.970;2023-06-14T14:44:47;28.00;77.50
16515;DHT22;8370;52.556;7.970;2023-06-14T14:47:13;27.90;78.90
16515;DHT22;8370;52.556;7.970;2023-06-14T14:49:38;27.90;77.60
16515;DHT22;8370;52.556;7.970;2023-06-14T14:52:03;27.90;77.60
16515;DHT22;8370;52.556;7.970;2023-06-14T14:54:29;27.80;77.40
16515;DHT22;8370;52.556;7.970;2023-06-14T14:56:54;27.70;76.50
16515;DHT22;8370;52.556;7.970;2023-06-14T14:59:20;27.50;77.00
16515;DHT22;8370;52.556;7.970;2023-06-14T15:01:47;27.40;77.30
16515;DHT22;8370;52.556;7.970;2023-06-14T15:04:12;27.40;78.50
16515;DHT22;8370;52.556;7.970;2023-06-14T15:06:38;27.40;80.00
16515;DHT22;8370;52.556;7.970;2023-06-14T15:09:05;27.60;79.90
16515;DHT22;8370;52.556;7.970;2023-06-14T15:11:30;27.60;79.60
16515;DHT22;8370;52.556;7.970;2023-06-14T15:13:56;27.70;78.30
16515;DHT22;8370;52.556;7.970;2023-06-14T15:16:21;27.70;78.60
16515;DHT22;8370;52.556;7.970;2023-06-14T15:18:47;27.60;78.40
16515;DHT22;8370;52.556;7.970;2023-06-14T15:21:12;27.70;78.40
16515;DHT22;8370;52.556;7.970;2023-06-14T15:23:38;27.70;79.20
16515;DHT22;8370;52.556;7.970;2023-06-14T15:26:04;27.70;78.50
16515;DHT22;8370;52.556;7.970;2023-06-14T15:28:29;27.60;78.40
16515;DHT22;8370;52.556;7.970;2023-06-14T15:30:55;27.50;78.40
16515;DHT22;8370;52.556;7.970;2023-06-14T15:33:20;27.30;78.80
16515;DHT22;8370;52.556;7.970;2023-06-14T15:35:46;27.20;79.30
16515;DHT22;8370;52.556;7.970;2023-06-14T15:38:12;27.40;79.00
16515;DHT22;8370;52.556;7.970;2023-06-14T15:40:37;27.40;77.90
16515;DHT22;8370;52.556;7.970;2023-06-14T15:43:02;27.40;78.90
16515;DHT22;8370;52.556;7.970;2023-06-14T15:45:28;27.30;79.90
16515;DHT22;8370;52.556;7.970;2023-06-14T15:47:54;27.20;80.50
16515;DHT22;8370;52.556;7.970;2023-06-14T15:50:19;27.00;80.30